ADDS METAR Data INFO
IDs: Format: Raw Decoded Include TAF

Data at: 0219 UTC 18 Jan 2018

KBKV 180153Z 32011KT 10SM CLR 06/00 A3034 RMK AO2 SLP271 T00560000
KBKV 180053Z 30009KT 10SM CLR 06/01 A3032 RMK AO2 SLP266 T00610011
KBKV 172353Z 29008KT 10SM CLR 06/02 A3031 RMK AO2 SLP264 T00610017 10150 20056 53012
KBKV 172253Z 29011KT 10SM CLR 08/03 A3030 RMK AO2 SLP260 T00780028
KBKV 172153Z 29015KT 10SM OVC049 09/04 A3029 RMK AO2 SLP255 T00890044
KBKV 172053Z 30015G25KT 10SM OVC043 10/05 A3028 RMK AO2 SLP252 T01000050 53007
KBKV 172035Z 32015G24KT 10SM FEW020 OVC039 11/05 A3028 RMK AO2 T01110050
KBKV 172028Z 30015G24KT 10SM BKN020 OVC037 11/06 A3027 RMK AO2 T01110056
KBKV 171953Z 29016G22KT 10SM OVC033 13/06 A3027 RMK AO2 SLP247 T01330056
KBKV 171924Z 29013G20KT 10SM BKN027 15/07 A3025 RMK AO2 T01500067
KBKV 171905Z 29010KT 10SM SCT016 SCT023 14/07 A3026 RMK AO2 T01440067
KBKV 171853Z 31013KT 10SM BKN016 13/06 A3026 RMK AO2 SLP246 T01330061
KBKV 171851Z 32012KT 10SM BKN016 13/06 A3026 RMK AO2
KBKV 171813Z 30018KT 10SM BKN014 13/07 A3027 RMK AO2 T01280072
KBKV 171753Z 30014KT 10SM CLR 14/08 A3027 RMK AO2 SLP250 T01440078 10194 20039 58007
KBKV 171653Z 29014KT 10SM CLR 18/09 A3029 RMK AO2 SLP256 T01830089
KBKV 171553Z 30009G15KT 10SM CLR 18/08 A3030 RMK AO2 SLP260 T01830083
KBKV 171453Z 00000KT 10SM CLR 14/10 A3030 RMK AO2 SLP258 T01390100 53009
KBKV 171353Z 00000KT 10SM CLR 09/08 A3028 RMK AO2 SLP253 T00890083
KBKV 171253Z 00000KT 10SM BR CLR 04/04 A3027 RMK AO2 SLP250 T00440039
KBKV 171153Z 00000KT 10SM OVC002 04/03 A3027 RMK AO2 SLP249 T00390033 10094 20039 53003
KBKV 171053Z AUTO 00000KT 10SM OVC002 05/04 A3026 RMK AO2 SLP246 T00500044
KBKV 170953Z AUTO 28003KT 10SM BKN003 04/04 A3026 RMK AO2 SLP245 T00440039
KBKV 170950Z AUTO 29003KT 10SM BKN003 04/04 A3026 RMK AO2
KBKV 170853Z AUTO 00000KT 10SM FEW004 04/04 A3026 RMK AO2 SLP245 T00440039 56006
KBKV 170802Z AUTO 00000KT 10SM FEW004 04/04 A3026 RMK AO2 T00440039
KBKV 170753Z AUTO 00000KT 10SM CLR 05/04 A3026 RMK AO2 SLP245 T00500044
KBKV 170653Z AUTO 00000KT 10SM CLR 07/06 A3027 RMK AO2 SLP248 T00720061
KBKV 170553Z AUTO 00000KT 10SM CLR 07/06 A3028 RMK AO2 SLP251 T00720061 10128 20044 58009
KBKV 170453Z AUTO 00000KT 10SM CLR 08/07 A3030 RMK AO2 SLP258 T00780067 402280050
KBKV 170353Z AUTO 00000KT 10SM CLR 07/06 A3031 RMK AO2 SLP262 T00720061
KBKV 170253Z 00000KT 10SM CLR 08/06 A3030 RMK AO2 SLP260 T00830061 51004
KBKV 170153Z 00000KT 10SM CLR 09/07 A3030 RMK AO2 SLP260 T00890067
KBKV 170053Z 00000KT 10SM CLR 11/07 A3030 RMK AO2 SLP258 T01110072
KBKV 162353Z 00000KT 10SM CLR 12/06 A3029 RMK AO2 SLP256 T01220061 10228 20122 55000
KBKV 162253Z 01004KT 10SM CLR 18/07 A3029 RMK AO2 SLP254 T01780067
KBKV 162153Z 02006KT 10SM CLR 21/06 A3029 RMK AO2 SLP257 T02110061
KBKV 162053Z 03005KT 10SM BKN060 22/06 A3029 RMK AO2 SLP256 T02220061 56019
KBKV 161953Z 01009KT 10SM BKN060 22/06 A3030 RMK AO2 SLP258 T02170061
KBKV 161853Z 05007KT 10SM BKN060 21/07 A3032 RMK AO2 SLP265 T02110067
KBKV 161753Z 05006KT 10SM CLR 21/08 A3035 RMK AO2 SLP275 T02110083 10211 20067 58020
KBKV 161653Z 06007KT 10SM CLR 19/09 A3038 RMK AO2 SLP286 T01940089
KBKV 161553Z 07005KT 10SM CLR 17/08 A3041 RMK AO2 SLP295 T01670083
KBKV 161453Z 04009KT 10SM CLR 14/08 A3040 RMK AO2 SLP294 T01390078 53010